sensor_id;sensor_type;location;lat;lon;timestamp;temperature;humidity
7028;DHT22;3555;53.248;10.336;2022-09-25T00:00:26;14.40;99.90
7028;DHT22;3555;53.248;10.336;2022-09-25T00:02:52;14.40;99.90
7028;DHT22;3555;53.248;10.336;2022-09-25T00:05:21;14.30;99.90
7028;DHT22;3555;53.248;10.336;2022-09-25T00:07:48;14.30;99.90
7028;DHT22;3555;53.248;10.336;2022-09-25T00:10:15;14.30;99.90
7028;DHT22;3555;53.248;10.336;2022-09-25T00:12:41;14.20;99.90
7028;DHT22;3555;53.248;10.336;2022-09-25T00:15:09;14.20;99.90
7028;DHT22;3555;53.248;10.336;2022-09-25T00:17:36;14.10;99.90
7028;DHT22;3555;53.248;10.336;2022-09-25T00:20:03;14.10;99.90
7028;DHT22;3555;53.248;10.336;2022-09-25T00:22:30;14.20;99.90
7028;DHT22;3555;53.248;10.336;2022-09-25T00:24:57;14.20;99.90
7028;DHT22;3555;53.248;10.336;2022-09-25T00:27:25;14.20;99.90
7028;DHT22;3555;53.248;10.336;2022-09-25T00:29:51;14.30;99.90
7028;DHT22;3555;53.248;10.336;2022-09-25T00:32:18;14.30;99.90
7028;DHT22;3555;53.248;10.336;2022-09-25T00:34:45;14.30;99.90
7028;DHT22;3555;53.248;10.336;2022-09-25T00:37:12;14.30;99.90
7028;DHT22;3555;53.248;10.336;2022-09-25T00:39:40;14.30;99.90
7028;DHT22;3555;53.248;10.336;2022-09-25T00:42:10;14.30;99.90
7028;DHT22;3555;53.248;10.336;2022-09-25T00:44:51;14.30;99.90
7028;DHT22;3555;53.248;10.336;2022-09-25T00:47:26;14.20;99.90
7028;DHT22;3555;53.248;10.336;2022-09-25T00:49:55;14.20;99.90
7028;DHT22;3555;53.248;10.336;2022-09-25T00:52:23;14.30;99.90
7028;DHT22;3555;53.248;10.336;2022-09-25T00:54:54;14.30;99.90
7028;DHT22;3555;53.248;10.336;2022-09-25T00:57:24;14.30;99.90
7028;DHT22;3555;53.248;10.336;2022-09-25T00:59:56;14.30;99.90
7028;DHT22;3555;53.248;10.336;2022-09-25T01:02:28;14.30;99.90
7028;DHT22;3555;53.248;10.336;2022-09-25T01:04:58;14.30;99.90
7028;DHT22;3555;53.248;10.336;2022-09-25T01:07:25;14.30;99.90
7028;DHT22;3555;53.248;10.336;2022-09-25T01:09:55;14.30;99.90
7028;DHT22;3555;53.248;10.336;2022-09-25T01:12:27;14.30;99.90
7028;DHT22;3555;53.248;10.336;2022-09-25T01:14:54;14.30;99.90
7028;DHT22;3555;53.248;10.336;2022-09-25T01:17:27;14.30;99.90
7028;DHT22;3555;53.248;10.336;2022-09-25T01:20:15;14.30;99.90
7028;DHT22;3555;53.248;10.336;2022-09-25T01:23:01;14.30;99.90
7028;DHT22;3555;53.248;10.336;2022-09-25T01:25:44;14.30;99.90
7028;DHT22;3555;53.248;10.336;2022-09-25T01:28:24;14.30;99.90
7028;DHT22;3555;53.248;10.336;2022-09-25T01:31:00;14.30;99.90
7028;DHT22;3555;53.248;10.336;2022-09-25T01:33:34;14.40;99.90
7028;DHT22;3555;53.248;10.336;2022-09-25T01:36:07;14.30;99.90
7028;DHT22;3555;53.248;10.336;2022-09-25T01:38:41;14.30;99.90
7028;DHT22;3555;53.248;10.336;2022-09-25T01:41:12;14.20;99.90
7028;DHT22;3555;53.248;10.336;2022-09-25T01:43:45;14.20;99.90
7028;DHT22;3555;53.248;10.336;2022-09-25T01:46:18;14.20;99.90
7028;DHT22;3555;53.248;10.336;2022-09-25T01:48:51;14.20;99.90
7028;DHT22;3555;53.248;10.336;2022-09-25T01:51:21;14.20;99.90
7028;DHT22;3555;53.248;10.336;2022-09-25T01:53:52;14.30;99.90
7028;DHT22;3555;53.248;10.336;2022-09-25T01:56:24;14.40;99.90
7028;DHT22;3555;53.248;10.336;2022-09-25T01:58:57;14.30;99.90
7028;DHT22;3555;53.248;10.336;2022-09-25T02:01:30;14.20;99.90
7028;DHT22;3555;53.248;10.336;2022-09-25T02:04:02;14.30;99.90
7028;DHT22;3555;53.248;10.336;2022-09-25T02:06:31;14.30;99.90
7028;DHT22;3555;53.248;10.336;2022-09-25T02:09:02;14.30;99.90
7028;DHT22;3555;53.248;10.336;2022-09-25T02:11:32;14.30;99.90
7028;DHT22;3555;53.248;10.336;2022-09-25T02:14:05;14.20;99.90
7028;DHT22;3555;53.248;10.336;2022-09-25T02:16:36;14.20;99.90
7028;DHT22;3555;53.248;10.336;2022-09-25T02:19:05;14.30;99.90
7028;DHT22;3555;53.248;10.336;2022-09-25T02:21:53;14.30;99.90
7028;DHT22;3555;53.248;10.336;2022-09-25T02:24:28;14.20;99.90
7028;DHT22;3555;53.248;10.336;2022-09-25T02:26:56;14.20;99.90
7028;DHT22;3555;53.248;10.336;2022-09-25T02:29:23;14.30;99.90
7028;DHT22;3555;53.248;10.336;2022-09-25T02:31:54;14.20;99.90
7028;DHT22;3555;53.248;10.336;2022-09-25T02:34:22;14.80;99.90
7028;DHT22;3555;53.248;10.336;2022-09-25T02:36:49;14.30;99.90
7028;DHT22;3555;53.248;10.336;2022-09-25T02:39:17;14.30;99.90
7028;DHT22;3555;53.248;10.336;2022-09-25T02:41:56;14.30;99.90
7028;DHT22;3555;53.248;10.336;2022-09-25T02:44:33;14.30;99.90
7028;DHT22;3555;53.248;10.336;2022-09-25T02:47:13;14.30;99.90
7028;DHT22;3555;53.248;10.336;2022-09-25T02:49:49;14.40;99.90
7028;DHT22;3555;53.248;10.336;2022-09-25T02:52:25;14.30;99.90
7028;DHT22;3555;53.248;10.336;2022-09-25T02:54:56;14.40;99.90
7028;DHT22;3555;53.248;10.336;2022-09-25T02:57:30;14.40;99.90
7028;DHT22;3555;53.248;10.336;2022-09-25T03:00:05;14.30;99.90
7028;DHT22;3555;53.248;10.336;2022-09-25T03:02:35;14.30;99.90
7028;DHT22;3555;53.248;10.336;2022-09-25T03:05:05;14.40;99.90
7028;DHT22;3555;53.248;10.336;2022-09-25T03:07:32;14.40;99.90
7028;DHT22;3555;53.248;10.336;2022-09-25T03:10:19;14.40;99.90
7028;DHT22;3555;53.248;10.336;2022-09-25T03:12:46;14.40;99.90
7028;DHT22;3555;53.248;10.336;2022-09-25T03:15:12;14.40;99.90
7028;DHT22;3555;53.248;10.336;2022-09-25T03:17:40;14.40;99.90
7028;DHT22;3555;53.248;10.336;2022-09-25T03:20:08;14.40;99.90
7028;DHT22;3555;53.248;10.336;2022-09-25T03:22:35;14.40;99.90
7028;DHT22;3555;53.248;10.336;2022-09-25T03:25:03;14.50;99.90
7028;DHT22;3555;53.248;10.336;2022-09-25T03:27:30;14.40;99.90
7028;DHT22;3555;53.248;10.336;2022-09-25T03:29:56;14.40;99.90
7028;DHT22;3555;53.248;10.336;2022-09-25T03:32:23;14.40;99.90
7028;DHT22;3555;53.248;10.336;2022-09-25T03:34:51;14.40;99.90
7028;DHT22;3555;53.248;10.336;2022-09-25T03:37:18;14.40;99.90
7028;DHT22;3555;53.248;10.336;2022-09-25T03:39:45;14.50;99.90
7028;DHT22;3555;53.248;10.336;2022-09-25T03:42:11;14.40;99.90
7028;DHT22;3555;53.248;10.336;2022-09-25T03:44:38;14.50;99.90
7028;DHT22;3555;53.248;10.336;2022-09-25T03:47:05;14.40;99.90
7028;DHT22;3555;53.248;10.336;2022-09-25T03:49:32;14.50;99.90
7028;DHT22;3555;53.248;10.336;2022-09-25T03:52:00;14.50;99.90
7028;DHT22;3555;53.248;10.336;2022-09-25T03:54:27;14.50;99.90
7028;DHT22;3555;53.248;10.336;2022-09-25T03:56:54;14.50;99.90
7028;DHT22;3555;53.248;10.336;2022-09-25T03:59:21;14.50;99.90
7028;DHT22;3555;53.248;10.336;2022-09-25T04:01:48;14.40;99.90
7028;DHT22;3555;53.248;10.336;2022-09-25T04:04:15;14.40;99.90
7028;DHT22;3555;53.248;10.336;2022-09-25T04:06:42;14.50;99.90
7028;DHT22;3555;53.248;10.336;2022-09-25T04:09:10;14.50;99.90
7028;DHT22;3555;53.248;10.336;2022-09-25T04:11:37;14.40;99.90
7028;DHT22;3555;53.248;10.336;2022-09-25T04:14:04;14.40;99.90
7028;DHT22;3555;53.248;10.336;2022-09-25T04:16:30;14.50;99.90
7028;DHT22;3555;53.248;10.336;2022-09-25T04:18:57;14.40;99.90
7028;DHT22;3555;53.248;10.336;2022-09-25T04:21:24;14.40;99.90
7028;DHT22;3555;53.248;10.336;2022-09-25T04:23:51;14.40;99.90
7028;DHT22;3555;53.248;10.336;2022-09-25T04:26:37;14.40;99.90
7028;DHT22;3555;53.248;10.336;2022-09-25T04:29:03;14.40;99.90
7028;DHT22;3555;53.248;10.336;2022-09-25T04:31:31;14.40;99.90
7028;DHT22;3555;53.248;10.336;2022-09-25T04:33:58;14.40;99.90
7028;DHT22;3555;53.248;10.336;2022-09-25T04:36:24;14.30;99.90
7028;DHT22;3555;53.248;10.336;2022-09-25T04:38:51;14.30;99.90
7028;DHT22;3555;53.248;10.336;2022-09-25T04:41:17;14.30;99.90
7028;DHT22;3555;53.248;10.336;2022-09-25T04:43:46;14.30;99.90
7028;DHT22;3555;53.248;10.336;2022-09-25T04:46:14;14.30;99.90
7028;DHT22;3555;53.248;10.336;2022-09-25T04:48:43;14.40;99.90
7028;DHT22;3555;53.248;10.336;2022-09-25T04:51:10;14.30;99.90
7028;DHT22;3555;53.248;10.336;2022-09-25T04:53:37;14.20;99.90
7028;DHT22;3555;53.248;10.336;2022-09-25T04:56:06;14.20;99.90
7028;DHT22;3555;53.248;10.336;2022-09-25T04:58:33;14.20;99.90
7028;DHT22;3555;53.248;10.336;2022-09-25T05:01:03;14.20;99.90
7028;DHT22;3555;53.248;10.336;2022-09-25T05:03:30;14.20;99.90
7028;DHT22;3555;53.248;10.336;2022-09-25T05:05:57;14.30;99.90
7028;DHT22;3555;53.248;10.336;2022-09-25T05:08:24;14.30;99.90
7028;DHT22;3555;53.248;10.336;2022-09-25T05:10:51;14.30;99.90
7028;DHT22;3555;53.248;10.336;2022-09-25T05:13:18;14.30;99.90
7028;DHT22;3555;53.248;10.336;2022-09-25T05:15:44;14.40;99.90
7028;DHT22;3555;53.248;10.336;2022-09-25T05:18:15;14.30;99.90
7028;DHT22;3555;53.248;10.336;2022-09-25T05:20:42;14.30;99.90
7028;DHT22;3555;53.248;10.336;2022-09-25T05:23:09;14.30;99.90
7028;DHT22;3555;53.248;10.336;2022-09-25T05:25:36;14.30;99.90
7028;DHT22;3555;53.248;10.336;2022-09-25T05:28:03;14.30;99.90
7028;DHT22;3555;53.248;10.336;2022-09-25T05:30:32;14.30;99.90
7028;DHT22;3555;53.248;10.336;2022-09-25T05:32:59;14.30;99.90
7028;DHT22;3555;53.248;10.336;2022-09-25T05:35:29;14.30;99.90
7028;DHT22;3555;53.248;10.336;2022-09-25T05:37:56;14.30;99.90
7028;DHT22;3555;53.248;10.336;2022-09-25T05:40:24;14.30;99.90
7028;DHT22;3555;53.248;10.336;2022-09-25T05:42:51;14.30;99.90
7028;DHT22;3555;53.248;10.336;2022-09-25T05:45:20;14.30;99.90
7028;DHT22;3555;53.248;10.336;2022-09-25T05:47:48;14.30;99.90
7028;DHT22;3555;53.248;10.336;2022-09-25T05:50:16;14.30;99.90
7028;DHT22;3555;53.248;10.336;2022-09-25T05:52:44;14.30;99.90
7028;DHT22;3555;53.248;10.336;2022-09-25T05:55:11;14.30;99.90
7028;DHT22;3555;53.248;10.336;2022-09-25T05:57:37;14.30;99.90
7028;DHT22;3555;53.248;10.336;2022-09-25T06:00:06;14.30;99.90
7028;DHT22;3555;53.248;10.336;2022-09-25T06:02:34;14.30;99.90
7028;DHT22;3555;53.248;10.336;2022-09-25T06:05:01;14.40;99.90
7028;DHT22;3555;53.248;10.336;2022-09-25T06:07:27;14.40;99.90
7028;DHT22;3555;53.248;10.336;2022-09-25T06:09:56;14.40;99.90
7028;DHT22;3555;53.248;10.336;2022-09-25T06:12:22;14.40;99.90
7028;DHT22;3555;53.248;10.336;2022-09-25T06:14:49;14.40;99.90
7028;DHT22;3555;53.248;10.336;2022-09-25T06:17:17;14.50;99.90
7028;DHT22;3555;53.248;10.336;2022-09-25T06:19:44;14.50;99.90
7028;DHT22;3555;53.248;10.336;2022-09-25T06:22:11;14.50;99.90
7028;DHT22;3555;53.248;10.336;2022-09-25T06:24:38;14.50;99.90
7028;DHT22;3555;53.248;10.336;2022-09-25T06:27:06;14.40;99.90
7028;DHT22;3555;53.248;10.336;2022-09-25T06:29:33;14.50;99.90
7028;DHT22;3555;53.248;10.336;2022-09-25T06:32:00;14.50;99.90
7028;DHT22;3555;53.248;10.336;2022-09-25T06:34:27;14.50;99.90
7028;DHT22;3555;53.248;10.336;2022-09-25T06:36:54;14.50;99.90
7028;DHT22;3555;53.248;10.336;2022-09-25T06:39:21;14.50;99.90
7028;DHT22;3555;53.248;10.336;2022-09-25T06:41:50;14.50;99.90
7028;DHT22;3555;53.248;10.336;2022-09-25T06:44:18;14.60;99.90
7028;DHT22;3555;53.248;10.336;2022-09-25T06:46:48;14.60;99.90
7028;DHT22;3555;53.248;10.336;2022-09-25T06:49:15;14.50;99.90
7028;DHT22;3555;53.248;10.336;2022-09-25T06:51:41;14.50;99.90
7028;DHT22;3555;53.248;10.336;2022-09-25T06:54:08;14.50;99.90
7028;DHT22;3555;53.248;10.336;2022-09-25T06:56:35;14.60;99.90
7028;DHT22;3555;53.248;10.336;2022-09-25T06:59:02;14.60;99.90
7028;DHT22;3555;53.248;10.336;2022-09-25T07:01:30;14.60;99.90
7028;DHT22;3555;53.248;10.336;2022-09-25T07:03:57;14.60;99.90
7028;DHT22;3555;53.248;10.336;2022-09-25T07:06:24;14.60;99.90
7028;DHT22;3555;53.248;10.336;2022-09-25T07:08:52;14.60;99.90
7028;DHT22;3555;53.248;10.336;2022-09-25T07:11:22;14.70;99.90
7028;DHT22;3555;53.248;10.336;2022-09-25T07:13:50;14.70;99.90
7028;DHT22;3555;53.248;10.336;2022-09-25T07:16:20;14.70;99.90
7028;DHT22;3555;53.248;10.336;2022-09-25T07:18:51;14.70;99.90
7028;DHT22;3555;53.248;10.336;2022-09-25T07:21:20;14.80;99.90
7028;DHT22;3555;53.248;10.336;2022-09-25T07:23:48;14.80;99.90
7028;DHT22;3555;53.248;10.336;2022-09-25T07:26:17;14.80;99.90
7028;DHT22;3555;53.248;10.336;2022-09-25T07:28:47;14.80;99.90
7028;DHT22;3555;53.248;10.336;2022-09-25T07:31:16;14.90;99.90
7028;DHT22;3555;53.248;10.336;2022-09-25T07:33:43;14.90;99.90
7028;DHT22;3555;53.248;10.336;2022-09-25T07:36:12;14.90;99.90
7028;DHT22;3555;53.248;10.336;2022-09-25T07:38:40;14.90;99.90
7028;DHT22;3555;53.248;10.336;2022-09-25T07:41:09;15.00;99.90
7028;DHT22;3555;53.248;10.336;2022-09-25T07:43:37;14.90;99.90
7028;DHT22;3555;53.248;10.336;2022-09-25T07:46:05;14.90;99.90
7028;DHT22;3555;53.248;10.336;2022-09-25T07:48:32;15.00;99.90
7028;DHT22;3555;53.248;10.336;2022-09-25T07:50:59;15.00;99.90
7028;DHT22;3555;53.248;10.336;2022-09-25T07:53:27;15.10;99.90
7028;DHT22;3555;53.248;10.336;2022-09-25T07:55:57;15.10;99.90
7028;DHT22;3555;53.248;10.336;2022-09-25T07:58:25;15.20;99.90
7028;DHT22;3555;53.248;10.336;2022-09-25T08:00:52;15.30;99.90
7028;DHT22;3555;53.248;10.336;2022-09-25T08:03:19;15.20;99.90
7028;DHT22;3555;53.248;10.336;2022-09-25T08:05:46;15.30;99.90
7028;DHT22;3555;53.248;10.336;2022-09-25T08:08:13;15.40;99.90
7028;DHT22;3555;53.248;10.336;2022-09-25T08:10:41;15.40;99.90
7028;DHT22;3555;53.248;10.336;2022-09-25T08:13:08;15.50;99.90
7028;DHT22;3555;53.248;10.336;2022-09-25T08:15:35;15.40;99.90
7028;DHT22;3555;53.248;10.336;2022-09-25T08:18:01;15.50;99.90
7028;DHT22;3555;53.248;10.336;2022-09-25T08:20:28;15.40;99.90
7028;DHT22;3555;53.248;10.336;2022-09-25T08:22:55;15.50;99.90
7028;DHT22;3555;53.248;10.336;2022-09-25T08:25:22;15.70;99.90
7028;DHT22;3555;53.248;10.336;2022-09-25T08:27:50;15.60;99.90
7028;DHT22;3555;53.248;10.336;2022-09-25T08:30:17;15.70;99.90
7028;DHT22;3555;53.248;10.336;2022-09-25T08:32:44;15.80;99.90
7028;DHT22;3555;53.248;10.336;2022-09-25T08:35:10;15.80;99.90
7028;DHT22;3555;53.248;10.336;2022-09-25T08:37:41;15.80;99.90
7028;DHT22;3555;53.248;10.336;2022-09-25T08:40:15;15.80;99.90
7028;DHT22;3555;53.248;10.336;2022-09-25T08:42:44;15.80;99.90
7028;DHT22;3555;53.248;10.336;2022-09-25T08:45:23;15.90;99.90
7028;DHT22;3555;53.248;10.336;2022-09-25T08:48:16;15.90;99.90
7028;DHT22;3555;53.248;10.336;2022-09-25T08:51:01;16.00;99.90
7028;DHT22;3555;53.248;10.336;2022-09-25T08:53:32;16.00;99.90
7028;DHT22;3555;53.248;10.336;2022-09-25T08:55:59;15.90;99.90
7028;DHT22;3555;53.248;10.336;2022-09-25T08:58:50;15.90;99.90
7028;DHT22;3555;53.248;10.336;2022-09-25T09:01:21;16.00;99.90
7028;DHT22;3555;53.248;10.336;2022-09-25T09:03:53;15.90;99.90
7028;DHT22;3555;53.248;10.336;2022-09-25T09:06:24;16.00;99.90
7028;DHT22;3555;53.248;10.336;2022-09-25T09:08:55;16.00;99.90
7028;DHT22;3555;53.248;10.336;2022-09-25T09:11:26;16.00;99.90
7028;DHT22;3555;53.248;10.336;2022-09-25T09:13:56;16.10;99.90
7028;DHT22;3555;53.248;10.336;2022-09-25T09:16:32;16.10;99.90
7028;DHT22;3555;53.248;10.336;2022-09-25T09:19:02;16.10;99.90
7028;DHT22;3555;53.248;10.336;2022-09-25T09:21:33;16.10;99.90
7028;DHT22;3555;53.248;10.336;2022-09-25T09:24:05;16.20;99.90
7028;DHT22;3555;53.248;10.336;2022-09-25T09:26:43;16.30;99.90
7028;DHT22;3555;53.248;10.336;2022-09-25T09:29:34;16.40;99.90
7028;DHT22;3555;53.248;10.336;2022-09-25T09:32:23;16.50;99.90
7028;DHT22;3555;53.248;10.336;2022-09-25T09:35:01;16.50;99.90
7028;DHT22;3555;53.248;10.336;2022-09-25T09:37:42;16.60;99.90
7028;DHT22;3555;53.248;10.336;2022-09-25T09:40:22;16.70;99.90
7028;DHT22;3555;53.248;10.336;2022-09-25T09:42:55;16.80;99.90
7028;DHT22;3555;53.248;10.336;2022-09-25T09:45:34;16.80;99.90
7028;DHT22;3555;53.248;10.336;2022-09-25T09:48:11;16.90;99.90
7028;DHT22;3555;53.248;10.336;2022-09-25T09:50:43;16.80;99.90
7028;DHT22;3555;53.248;10.336;2022-09-25T09:53:21;16.90;99.90
7028;DHT22;3555;53.248;10.336;2022-09-25T09:55:56;17.00;99.90
7028;DHT22;3555;53.248;10.336;2022-09-25T09:58:29;17.20;99.90
7028;DHT22;3555;53.248;10.336;2022-09-25T10:00:58;17.20;99.90
7028;DHT22;3555;53.248;10.336;2022-09-25T10:03:28;17.30;99.90
7028;DHT22;3555;53.248;10.336;2022-09-25T10:05:58;17.40;99.90
7028;DHT22;3555;53.248;10.336;2022-09-25T10:08:26;17.30;99.90
7028;DHT22;3555;53.248;10.336;2022-09-25T10:10:53;17.50;99.90
7028;DHT22;3555;53.248;10.336;2022-09-25T10:13:23;17.60;99.90
7028;DHT22;3555;53.248;10.336;2022-09-25T10:15:52;17.60;99.90
7028;DHT22;3555;53.248;10.336;2022-09-25T10:18:22;17.50;99.90
7028;DHT22;3555;53.248;10.336;2022-09-25T10:20:56;17.60;99.90
7028;DHT22;3555;53.248;10.336;2022-09-25T10:23:34;17.50;99.90
7028;DHT22;3555;53.248;10.336;2022-09-25T10:26:01;17.50;99.90
7028;DHT22;3555;53.248;10.336;2022-09-25T10:28:30;17.50;99.90
7028;DHT22;3555;53.248;10.336;2022-09-25T10:31:00;17.50;99.90
7028;DHT22;3555;53.248;10.336;2022-09-25T10:33:29;17.40;99.90
7028;DHT22;3555;53.248;10.336;2022-09-25T10:35:58;17.40;99.90
7028;DHT22;3555;53.248;10.336;2022-09-25T10:38:31;17.50;99.90
7028;DHT22;3555;53.248;10.336;2022-09-25T10:41:05;17.20;99.90
7028;DHT22;3555;53.248;10.336;2022-09-25T10:43:33;17.40;99.90
7028;DHT22;3555;53.248;10.336;2022-09-25T10:46:05;17.40;99.90
7028;DHT22;3555;53.248;10.336;2022-09-25T10:48:33;17.40;99.90
7028;DHT22;3555;53.248;10.336;2022-09-25T10:51:20;17.30;99.90
7028;DHT22;3555;53.248;10.336;2022-09-25T10:53:49;17.30;99.90
7028;DHT22;3555;53.248;10.336;2022-09-25T10:56:19;17.10;99.90
7028;DHT22;3555;53.248;10.336;2022-09-25T10:58:50;17.20;99.90
7028;DHT22;3555;53.248;10.336;2022-09-25T11:01:20;17.10;99.90
7028;DHT22;3555;53.248;10.336;2022-09-25T11:03:55;17.00;99.90
7028;DHT22;3555;53.248;10.336;2022-09-25T11:06:25;16.80;99.90
7028;DHT22;3555;53.248;10.336;2022-09-25T11:09:02;16.60;99.90
7028;DHT22;3555;53.248;10.336;2022-09-25T11:11:32;16.50;99.90
7028;DHT22;3555;53.248;10.336;2022-09-25T11:14:02;16.50;99.90
7028;DHT22;3555;53.248;10.336;2022-09-25T11:16:48;16.50;99.90
7028;DHT22;3555;53.248;10.336;2022-09-25T11:19:21;16.40;99.90
7028;DHT22;3555;53.248;10.336;2022-09-25T11:21:56;16.40;99.90
7028;DHT22;3555;53.248;10.336;2022-09-25T11:24:32;16.10;99.90
7028;DHT22;3555;53.248;10.336;2022-09-25T11:27:06;16.20;99.90
7028;DHT22;3555;53.248;10.336;2022-09-25T11:29:41;16.20;99.90
7028;DHT22;3555;53.248;10.336;2022-09-25T11:32:18;16.10;99.90
7028;DHT22;3555;53.248;10.336;2022-09-25T11:35:03;16.00;99.90
7028;DHT22;3555;53.248;10.336;2022-09-25T11:37:42;16.00;99.90
7028;DHT22;3555;53.248;10.336;2022-09-25T11:40:25;15.90;99.90
7028;DHT22;3555;53.248;10.336;2022-09-25T11:43:14;15.70;99.90
7028;DHT22;3555;53.248;10.336;2022-09-25T11:45:46;15.60;99.90
7028;DHT22;3555;53.248;10.336;2022-09-25T11:48:19;15.50;99.90
7028;DHT22;3555;53.248;10.336;2022-09-25T11:51:06;15.50;99.90
7028;DHT22;3555;53.248;10.336;2022-09-25T11:53:41;15.50;99.90
7028;DHT22;3555;53.248;10.336;2022-09-25T11:56:25;15.40;99.90
7028;DHT22;3555;53.248;10.336;2022-09-25T11:59:03;15.30;99.90
7028;DHT22;3555;53.248;10.336;2022-09-25T12:01:34;15.30;99.90
7028;DHT22;3555;53.248;10.336;2022-09-25T12:04:27;15.20;99.90
7028;DHT22;3555;53.248;10.336;2022-09-25T12:07:04;15.20;99.90
7028;DHT22;3555;53.248;10.336;2022-09-25T12:09:51;15.20;99.90
7028;DHT22;3555;53.248;10.336;2022-09-25T12:12:28;15.30;99.90
7028;DHT22;3555;53.248;10.336;2022-09-25T12:15:04;15.30;99.90
7028;DHT22;3555;53.248;10.336;2022-09-25T12:17:40;15.40;99.90
7028;DHT22;3555;53.248;10.336;2022-09-25T12:20:16;15.20;99.90
7028;DHT22;3555;53.248;10.336;2022-09-25T12:22:52;15.10;99.90
7028;DHT22;3555;53.248;10.336;2022-09-25T12:25:36;15.10;99.90
7028;DHT22;3555;53.248;10.336;2022-09-25T12:28:16;15.10;99.90
7028;DHT22;3555;53.248;10.336;2022-09-25T12:30:52;15.20;99.90
7028;DHT22;3555;53.248;10.336;2022-09-25T12:33:28;15.20;99.90
7028;DHT22;3555;53.248;10.336;2022-09-25T12:36:03;15.10;99.90
7028;DHT22;3555;53.248;10.336;2022-09-25T12:38:39;15.10;99.90
7028;DHT22;3555;53.248;10.336;2022-09-25T12:41:13;14.90;99.90
7028;DHT22;3555;53.248;10.336;2022-09-25T12:43:45;15.10;99.90
7028;DHT22;3555;53.248;10.336;2022-09-25T12:46:18;15.10;99.90
7028;DHT22;3555;53.248;10.336;2022-09-25T12:48:50;14.90;99.90
7028;DHT22;3555;53.248;10.336;2022-09-25T12:51:21;15.00;99.90
7028;DHT22;3555;53.248;10.336;2022-09-25T12:53:54;14.90;99.90
7028;DHT22;3555;53.248;10.336;2022-09-25T12:56:28;14.90;99.90
7028;DHT22;3555;53.248;10.336;2022-09-25T12:59:05;14.80;99.90
7028;DHT22;3555;53.248;10.336;2022-09-25T13:01:42;14.80;99.90
7028;DHT22;3555;53.248;10.336;2022-09-25T13:04:21;14.90;99.90
7028;DHT22;3555;53.248;10.336;2022-09-25T13:06:52;14.90;99.90
7028;DHT22;3555;53.248;10.336;2022-09-25T13:09:27;14.70;99.90
7028;DHT22;3555;53.248;10.336;2022-09-25T13:12:01;14.70;99.90
7028;DHT22;3555;53.248;10.336;2022-09-25T13:14:34;14.70;99.90
7028;DHT22;3555;53.248;10.336;2022-09-25T13:17:04;14.90;99.90
7028;DHT22;3555;53.248;10.336;2022-09-25T13:19:32;15.00;99.90
7028;DHT22;3555;53.248;10.336;2022-09-25T13:22:04;15.00;99.90
7028;DHT22;3555;53.248;10.336;2022-09-25T13:24:42;15.10;99.90
7028;DHT22;3555;53.248;10.336;2022-09-25T13:27:15;15.20;99.90
7028;DHT22;3555;53.248;10.336;2022-09-25T13:29:51;15.20;99.90
7028;DHT22;3555;53.248;10.336;2022-09-25T13:32:20;15.40;99.90
7028;DHT22;3555;53.248;10.336;2022-09-25T13:34:51;15.50;99.90
7028;DHT22;3555;53.248;10.336;2022-09-25T13:37:24;15.50;99.90
7028;DHT22;3555;53.248;10.336;2022-09-25T13:39:53;15.50;99.90
7028;DHT22;3555;53.248;10.336;2022-09-25T13:42:40;15.70;99.90
7028;DHT22;3555;53.248;10.336;2022-09-25T13:45:31;15.70;99.90
7028;DHT22;3555;53.248;10.336;2022-09-25T13:48:00;15.80;99.90
7028;DHT22;3555;53.248;10.336;2022-09-25T13:50:33;15.80;99.90
7028;DHT22;3555;53.248;10.336;2022-09-25T13:56:14;16.00;99.90
7028;DHT22;3555;53.248;10.336;2022-09-25T14:01:46;15.80;99.90
7028;DHT22;3555;53.248;10.336;2022-09-25T14:04:29;15.70;99.90
7028;DHT22;3555;53.248;10.336;2022-09-25T14:07:05;15.60;99.90
7028;DHT22;3555;53.248;10.336;2022-09-25T14:09:34;15.40;99.90
7028;DHT22;3555;53.248;10.336;2022-09-25T14:12:18;15.50;99.90
7028;DHT22;3555;53.248;10.336;2022-09-25T14:14:49;15.50;99.90
7028;DHT22;3555;53.248;10.336;2022-09-25T14:17:22;15.40;99.90
7028;DHT22;3555;53.248;10.336;2022-09-25T14:19:53;15.50;99.90
7028;DHT22;3555;53.248;10.336;2022-09-25T14:22:27;15.50;99.90
7028;DHT22;3555;53.248;10.336;2022-09-25T14:24:54;15.50;99.90
7028;DHT22;3555;53.248;10.336;2022-09-25T14:27:24;15.50;99.90
7028;DHT22;3555;53.248;10.336;2022-09-25T14:30:02;15.50;99.90
7028;DHT22;3555;53.248;10.336;2022-09-25T14:32:40;15.60;99.90
7028;DHT22;3555;53.248;10.336;2022-09-25T14:35:21;15.60;99.90
7028;DHT22;3555;53.248;10.336;2022-09-25T14:38:05;15.60;99.90
7028;DHT22;3555;53.248;10.336;2022-09-25T14:40:36;15.50;99.90
7028;DHT22;3555;53.248;10.336;2022-09-25T14:43:19;15.50;99.90
7028;DHT22;3555;53.248;10.336;2022-09-25T14:46:00;15.50;99.90
7028;DHT22;3555;53.248;10.336;2022-09-25T14:48:34;15.50;99.90
7028;DHT22;3555;53.248;10.336;2022-09-25T14:51:04;15.40;99.90
7028;DHT22;3555;53.248;10.336;2022-09-25T14:53:36;15.40;99.90
7028;DHT22;3555;53.248;10.336;2022-09-25T14:56:05;15.40;99.90
7028;DHT22;3555;53.248;10.336;2022-09-25T14:58:38;15.50;99.90
7028;DHT22;3555;53.248;10.336;2022-09-25T15:01:12;15.60;99.90
7028;DHT22;3555;53.248;10.336;2022-09-25T15:03:46;15.70;99.90
7028;DHT22;3555;53.248;10.336;2022-09-25T15:06:26;15.80;99.90
7028;DHT22;3555;53.248;10.336;2022-09-25T15:08:54;15.90;99.90
7028;DHT22;3555;53.248;10.336;2022-09-25T15:11:23;15.90;99.90
7028;DHT22;3555;53.248;10.336;2022-09-25T15:14:07;15.90;99.90
7028;DHT22;3555;53.248;10.336;2022-09-25T15:16:35;15.90;99.90
7028;DHT22;3555;53.248;10.336;2022-09-25T15:19:24;16.10;99.90
7028;DHT22;3555;53.248;10.336;2022-09-25T15:21:52;16.60;99.90
7028;DHT22;3555;53.248;10.336;2022-09-25T15:24:22;16.30;99.90
7028;DHT22;3555;53.248;10.336;2022-09-25T15:26:55;16.50;99.90
7028;DHT22;3555;53.248;10.336;2022-09-25T15:29:27;17.30;99.90
7028;DHT22;3555;53.248;10.336;2022-09-25T15:31:55;16.80;99.90
7028;DHT22;3555;53.248;10.336;2022-09-25T15:34:25;16.70;99.90
7028;DHT22;3555;53.248;10.336;2022-09-25T15:36:52;16.80;99.90
7028;DHT22;3555;53.248;10.336;2022-09-25T15:39:22;16.80;99.90
7028;DHT22;3555;53.248;10.336;2022-09-25T15:41:49;16.80;99.90
7028;DHT22;3555;53.248;10.336;2022-09-25T15:44:20;17.10;99.90
7028;DHT22;3555;53.248;10.336;2022-09-25T15:46:49;17.20;99.90
7028;DHT22;3555;53.248;10.336;2022-09-25T15:49:19;17.30;99.90
7028;DHT22;3555;53.248;10.336;2022-09-25T15:51:50;17.20;99.90
7028;DHT22;3555;53.248;10.336;2022-09-25T15:54:29;17.20;99.90
7028;DHT22;3555;53.248;10.336;2022-09-25T15:56:57;17.40;99.90
7028;DHT22;3555;53.248;10.336;2022-09-25T15:59:28;17.50;99.90
7028;DHT22;3555;53.248;10.336;2022-09-25T16:01:55;17.70;99.90
7028;DHT22;3555;53.248;10.336;2022-09-25T16:04:46;17.70;99.90
7028;DHT22;3555;53.248;10.336;2022-09-25T16:07:25;17.90;99.90
7028;DHT22;3555;53.248;10.336;2022-09-25T16:09:53;17.90;99.90
7028;DHT22;3555;53.248;10.336;2022-09-25T16:12:26;18.00;99.90
7028;DHT22;3555;53.248;10.336;2022-09-25T16:14:55;18.10;99.90
7028;DHT22;3555;53.248;10.336;2022-09-25T16:17:25;18.00;99.90